sensor_id;sensor_type;location;lat;lon;timestamp;temperature;humidity
23267;DHT22;11802;53.160;8.214;2023-07-31T00:00:05;16.40;99.90
23267;DHT22;11802;53.160;8.214;2023-07-31T00:02:31;16.40;99.90
23267;DHT22;11802;53.160;8.214;2023-07-31T00:04:57;16.40;99.90
23267;DHT22;11802;53.160;8.214;2023-07-31T00:07:22;16.40;99.90
23267;DHT22;11802;53.160;8.214;2023-07-31T00:09:48;16.40;99.90
23267;DHT22;11802;53.160;8.214;2023-07-31T00:12:13;16.30;99.90
23267;DHT22;11802;53.160;8.214;2023-07-31T00:14:39;16.40;99.90
23267;DHT22;11802;53.160;8.214;2023-07-31T00:17:05;16.30;99.90
23267;DHT22;11802;53.160;8.214;2023-07-31T00:19:30;16.30;99.90
23267;DHT22;11802;53.160;8.214;2023-07-31T00:21:56;16.30;99.90
23267;DHT22;11802;53.160;8.214;2023-07-31T00:24:21;16.30;99.90
23267;DHT22;11802;53.160;8.214;2023-07-31T00:26:47;16.30;99.90
23267;DHT22;11802;53.160;8.214;2023-07-31T00:29:12;16.30;99.90
23267;DHT22;11802;53.160;8.214;2023-07-31T00:31:38;16.30;99.90
23267;DHT22;11802;53.160;8.214;2023-07-31T00:34:03;16.20;99.90
23267;DHT22;11802;53.160;8.214;2023-07-31T00:36:29;16.20;99.90
23267;DHT22;11802;53.160;8.214;2023-07-31T00:38:54;16.20;99.90
23267;DHT22;11802;53.160;8.214;2023-07-31T00:41:20;16.20;99.90
23267;DHT22;11802;53.160;8.214;2023-07-31T00:43:45;16.20;99.90
23267;DHT22;11802;53.160;8.214;2023-07-31T00:46:11;16.20;99.90
23267;DHT22;11802;53.160;8.214;2023-07-31T00:48:37;16.20;99.90
23267;DHT22;11802;53.160;8.214;2023-07-31T00:51:03;16.20;99.90
23267;DHT22;11802;53.160;8.214;2023-07-31T00:53:29;16.20;99.90
23267;DHT22;11802;53.160;8.214;2023-07-31T00:55:55;16.20;99.90
23267;DHT22;11802;53.160;8.214;2023-07-31T00:58:20;16.20;99.90
23267;DHT22;11802;53.160;8.214;2023-07-31T01:00:46;16.20;99.90
23267;DHT22;11802;53.160;8.214;2023-07-31T01:03:12;16.20;99.90
23267;DHT22;11802;53.160;8.214;2023-07-31T01:05:54;16.20;99.90
23267;DHT22;11802;53.160;8.214;2023-07-31T01:11:06;16.20;99.90
23267;DHT22;11802;53.160;8.214;2023-07-31T01:13:32;16.20;99.90
23267;DHT22;11802;53.160;8.214;2023-07-31T01:15:58;16.20;99.90
23267;DHT22;11802;53.160;8.214;2023-07-31T01:18:24;16.10;99.90
23267;DHT22;11802;53.160;8.214;2023-07-31T01:20:57;16.10;99.90
23267;DHT22;11802;53.160;8.214;2023-07-31T01:26:30;16.10;99.90
23267;DHT22;11802;53.160;8.214;2023-07-31T01:29:03;16.10;99.90
23267;DHT22;11802;53.160;8.214;2023-07-31T01:31:32;16.00;99.90
23267;DHT22;11802;53.160;8.214;2023-07-31T01:34:01;16.00;99.90
23267;DHT22;11802;53.160;8.214;2023-07-31T01:36:27;16.00;99.90
23267;DHT22;11802;53.160;8.214;2023-07-31T01:38:58;15.90;99.90
23267;DHT22;11802;53.160;8.214;2023-07-31T01:41:24;15.90;99.90
23267;DHT22;11802;53.160;8.214;2023-07-31T01:43:49;15.80;99.90
23267;DHT22;11802;53.160;8.214;2023-07-31T01:46:15;15.80;99.90
23267;DHT22;11802;53.160;8.214;2023-07-31T01:48:41;15.70;99.90
23267;DHT22;11802;53.160;8.214;2023-07-31T01:51:06;15.60;99.90
23267;DHT22;11802;53.160;8.214;2023-07-31T01:53:32;15.60;99.90
23267;DHT22;11802;53.160;8.214;2023-07-31T01:55:57;15.50;99.90
23267;DHT22;11802;53.160;8.214;2023-07-31T01:58:23;15.50;99.90
23267;DHT22;11802;53.160;8.214;2023-07-31T02:00:48;15.50;99.90
23267;DHT22;11802;53.160;8.214;2023-07-31T02:03:14;15.40;99.90
23267;DHT22;11802;53.160;8.214;2023-07-31T02:05:49;15.40;99.90
23267;DHT22;11802;53.160;8.214;2023-07-31T02:08:15;15.40;99.90
23267;DHT22;11802;53.160;8.214;2023-07-31T02:10:41;15.40;99.90
23267;DHT22;11802;53.160;8.214;2023-07-31T02:13:07;15.40;99.90
23267;DHT22;11802;53.160;8.214;2023-07-31T02:15:32;15.40;99.90
23267;DHT22;11802;53.160;8.214;2023-07-31T02:17:58;15.40;99.90
23267;DHT22;11802;53.160;8.214;2023-07-31T02:20:24;15.30;99.90
23267;DHT22;11802;53.160;8.214;2023-07-31T02:22:49;15.30;99.90
23267;DHT22;11802;53.160;8.214;2023-07-31T02:25:15;15.30;99.90
23267;DHT22;11802;53.160;8.214;2023-07-31T02:27:40;15.30;99.90
23267;DHT22;11802;53.160;8.214;2023-07-31T02:30:06;15.30;99.90
23267;DHT22;11802;53.160;8.214;2023-07-31T02:32:32;15.30;99.90
23267;DHT22;11802;53.160;8.214;2023-07-31T02:34:57;15.30;99.90
23267;DHT22;11802;53.160;8.214;2023-07-31T02:37:23;15.30;99.90
23267;DHT22;11802;53.160;8.214;2023-07-31T02:39:49;15.20;99.90
23267;DHT22;11802;53.160;8.214;2023-07-31T02:42:15;15.20;99.90
23267;DHT22;11802;53.160;8.214;2023-07-31T02:44:40;15.20;99.90
23267;DHT22;11802;53.160;8.214;2023-07-31T02:47:06;15.20;99.90
23267;DHT22;11802;53.160;8.214;2023-07-31T02:49:31;15.20;99.90
23267;DHT22;11802;53.160;8.214;2023-07-31T02:51:57;15.20;99.90
23267;DHT22;11802;53.160;8.214;2023-07-31T02:54:23;15.20;99.90
23267;DHT22;11802;53.160;8.214;2023-07-31T02:56:48;15.20;99.90
23267;DHT22;11802;53.160;8.214;2023-07-31T02:59:14;15.20;99.90
23267;DHT22;11802;53.160;8.214;2023-07-31T03:01:40;15.20;99.90
23267;DHT22;11802;53.160;8.214;2023-07-31T03:04:07;15.20;99.90
23267;DHT22;11802;53.160;8.214;2023-07-31T03:06:32;15.20;99.90
23267;DHT22;11802;53.160;8.214;2023-07-31T03:08:58;15.20;99.90
23267;DHT22;11802;53.160;8.214;2023-07-31T03:11:23;15.20;99.90
23267;DHT22;11802;53.160;8.214;2023-07-31T03:13:49;15.20;99.90
23267;DHT22;11802;53.160;8.214;2023-07-31T03:16:14;15.20;99.90
23267;DHT22;11802;53.160;8.214;2023-07-31T03:18:40;15.20;99.90
23267;DHT22;11802;53.160;8.214;2023-07-31T03:21:06;15.20;99.90
23267;DHT22;11802;53.160;8.214;2023-07-31T03:23:31;15.20;99.90
23267;DHT22;11802;53.160;8.214;2023-07-31T03:26:01;15.20;99.90
23267;DHT22;11802;53.160;8.214;2023-07-31T03:28:28;15.20;99.90
23267;DHT22;11802;53.160;8.214;2023-07-31T03:30:54;15.20;99.90
23267;DHT22;11802;53.160;8.214;2023-07-31T03:33:19;15.20;99.90
23267;DHT22;11802;53.160;8.214;2023-07-31T03:35:45;15.20;99.90
23267;DHT22;11802;53.160;8.214;2023-07-31T03:38:11;15.20;99.90
23267;DHT22;11802;53.160;8.214;2023-07-31T03:40:36;15.20;99.90
23267;DHT22;11802;53.160;8.214;2023-07-31T03:43:02;15.20;99.90
23267;DHT22;11802;53.160;8.214;2023-07-31T03:45:27;15.20;99.90
23267;DHT22;11802;53.160;8.214;2023-07-31T03:47:53;15.20;99.90
23267;DHT22;11802;53.160;8.214;2023-07-31T03:50:20;15.20;99.90
23267;DHT22;11802;53.160;8.214;2023-07-31T03:52:47;15.20;99.90
23267;DHT22;11802;53.160;8.214;2023-07-31T03:55:12;15.20;99.90
23267;DHT22;11802;53.160;8.214;2023-07-31T03:57:38;15.20;99.90
23267;DHT22;11802;53.160;8.214;2023-07-31T04:00:04;15.20;99.90
23267;DHT22;11802;53.160;8.214;2023-07-31T04:02:29;15.20;99.90
23267;DHT22;11802;53.160;8.214;2023-07-31T04:04:55;15.20;99.90
23267;DHT22;11802;53.160;8.214;2023-07-31T04:07:20;15.10;99.90
23267;DHT22;11802;53.160;8.214;2023-07-31T04:09:46;15.20;99.90
23267;DHT22;11802;53.160;8.214;2023-07-31T04:12:11;15.20;99.90
23267;DHT22;11802;53.160;8.214;2023-07-31T04:14:37;15.20;99.90
23267;DHT22;11802;53.160;8.214;2023-07-31T04:17:02;15.20;99.90
23267;DHT22;11802;53.160;8.214;2023-07-31T04:19:28;15.30;99.90
23267;DHT22;11802;53.160;8.214;2023-07-31T04:21:53;15.20;99.90
23267;DHT22;11802;53.160;8.214;2023-07-31T04:24:19;15.20;99.90
23267;DHT22;11802;53.160;8.214;2023-07-31T04:26:50;15.20;99.90
23267;DHT22;11802;53.160;8.214;2023-07-31T04:29:15;15.20;99.90
23267;DHT22;11802;53.160;8.214;2023-07-31T04:31:41;15.20;99.90
23267;DHT22;11802;53.160;8.214;2023-07-31T04:34:06;15.20;99.90
23267;DHT22;11802;53.160;8.214;2023-07-31T04:36:33;15.20;99.90
23267;DHT22;11802;53.160;8.214;2023-07-31T04:38:59;15.20;99.90
23267;DHT22;11802;53.160;8.214;2023-07-31T04:41:24;15.30;99.90
23267;DHT22;11802;53.160;8.214;2023-07-31T04:43:50;15.20;99.90
23267;DHT22;11802;53.160;8.214;2023-07-31T04:46:15;15.30;99.90
23267;DHT22;11802;53.160;8.214;2023-07-31T04:48:41;15.30;99.90
23267;DHT22;11802;53.160;8.214;2023-07-31T04:51:06;15.30;99.90
23267;DHT22;11802;53.160;8.214;2023-07-31T04:53:32;15.30;99.90
23267;DHT22;11802;53.160;8.214;2023-07-31T04:55:58;15.30;99.90
23267;DHT22;11802;53.160;8.214;2023-07-31T04:58:23;15.30;99.90
23267;DHT22;11802;53.160;8.214;2023-07-31T05:00:49;15.30;99.90
23267;DHT22;11802;53.160;8.214;2023-07-31T05:03:14;15.40;99.90
23267;DHT22;11802;53.160;8.214;2023-07-31T05:05:40;15.40;99.90
23267;DHT22;11802;53.160;8.214;2023-07-31T05:08:05;15.30;99.90
23267;DHT22;11802;53.160;8.214;2023-07-31T05:10:31;15.40;99.90
23267;DHT22;11802;53.160;8.214;2023-07-31T05:12:56;15.40;99.90
23267;DHT22;11802;53.160;8.214;2023-07-31T05:15:22;15.50;99.90
23267;DHT22;11802;53.160;8.214;2023-07-31T05:17:48;15.50;99.90
23267;DHT22;11802;53.160;8.214;2023-07-31T05:20:13;15.50;99.90
23267;DHT22;11802;53.160;8.214;2023-07-31T05:22:40;15.50;99.90
23267;DHT22;11802;53.160;8.214;2023-07-31T05:25:06;15.50;99.90
23267;DHT22;11802;53.160;8.214;2023-07-31T05:27:32;15.60;99.90
23267;DHT22;11802;53.160;8.214;2023-07-31T05:29:58;15.60;99.90
23267;DHT22;11802;53.160;8.214;2023-07-31T05:32:23;15.60;99.90
23267;DHT22;11802;53.160;8.214;2023-07-31T05:34:51;15.60;99.90
23267;DHT22;11802;53.160;8.214;2023-07-31T05:37:17;15.60;99.90
23267;DHT22;11802;53.160;8.214;2023-07-31T05:39:43;15.70;99.90
23267;DHT22;11802;53.160;8.214;2023-07-31T05:42:08;15.70;99.90
23267;DHT22;11802;53.160;8.214;2023-07-31T05:44:34;15.60;99.90
23267;DHT22;11802;53.160;8.214;2023-07-31T05:46:59;15.70;99.90
23267;DHT22;11802;53.160;8.214;2023-07-31T05:49:25;15.70;99.90
23267;DHT22;11802;53.160;8.214;2023-07-31T05:51:50;15.70;99.90
23267;DHT22;11802;53.160;8.214;2023-07-31T05:54:16;15.80;99.90
23267;DHT22;11802;53.160;8.214;2023-07-31T05:56:41;15.80;99.90
23267;DHT22;11802;53.160;8.214;2023-07-31T05:59:09;15.90;99.90
23267;DHT22;11802;53.160;8.214;2023-07-31T06:01:35;15.80;99.90
23267;DHT22;11802;53.160;8.214;2023-07-31T06:04:00;15.90;99.90
23267;DHT22;11802;53.160;8.214;2023-07-31T06:06:27;16.00;99.90
23267;DHT22;11802;53.160;8.214;2023-07-31T06:08:53;16.10;99.90
23267;DHT22;11802;53.160;8.214;2023-07-31T06:11:20;16.10;99.90
23267;DHT22;11802;53.160;8.214;2023-07-31T06:13:45;16.10;99.90
23267;DHT22;11802;53.160;8.214;2023-07-31T06:16:13;16.00;99.90
23267;DHT22;11802;53.160;8.214;2023-07-31T06:18:39;16.10;99.90
23267;DHT22;11802;53.160;8.214;2023-07-31T06:21:04;16.20;99.90
23267;DHT22;11802;53.160;8.214;2023-07-31T06:23:30;16.20;99.90
23267;DHT22;11802;53.160;8.214;2023-07-31T06:25:55;16.20;99.90
23267;DHT22;11802;53.160;8.214;2023-07-31T06:28:21;16.20;99.90
23267;DHT22;11802;53.160;8.214;2023-07-31T06:30:46;16.30;99.90
23267;DHT22;11802;53.160;8.214;2023-07-31T06:33:12;16.30;99.90
23267;DHT22;11802;53.160;8.214;2023-07-31T06:35:38;16.40;99.90
23267;DHT22;11802;53.160;8.214;2023-07-31T06:38:03;16.30;99.90
23267;DHT22;11802;53.160;8.214;2023-07-31T06:40:29;16.30;99.90
23267;DHT22;11802;53.160;8.214;2023-07-31T06:42:55;16.30;99.90
23267;DHT22;11802;53.160;8.214;2023-07-31T06:45:20;16.30;99.90
23267;DHT22;11802;53.160;8.214;2023-07-31T06:47:47;16.30;99.90
23267;DHT22;11802;53.160;8.214;2023-07-31T06:50:12;16.30;99.90
23267;DHT22;11802;53.160;8.214;2023-07-31T06:52:38;16.30;99.90
23267;DHT22;11802;53.160;8.214;2023-07-31T06:55:16;16.30;99.90
23267;DHT22;11802;53.160;8.214;2023-07-31T06:57:49;16.40;99.90
23267;DHT22;11802;53.160;8.214;2023-07-31T07:00:16;16.50;99.90
23267;DHT22;11802;53.160;8.214;2023-07-31T07:02:42;16.60;99.90
23267;DHT22;11802;53.160;8.214;2023-07-31T07:05:08;16.60;99.90
23267;DHT22;11802;53.160;8.214;2023-07-31T07:07:34;16.50;99.90
23267;DHT22;11802;53.160;8.214;2023-07-31T07:09:59;16.40;99.90
23267;DHT22;11802;53.160;8.214;2023-07-31T07:12:26;16.40;99.90
23267;DHT22;11802;53.160;8.214;2023-07-31T07:14:51;16.40;99.90
23267;DHT22;11802;53.160;8.214;2023-07-31T07:17:18;16.40;99.90
23267;DHT22;11802;53.160;8.214;2023-07-31T07:19:44;16.40;99.90
23267;DHT22;11802;53.160;8.214;2023-07-31T07:22:11;16.50;99.90
23267;DHT22;11802;53.160;8.214;2023-07-31T07:24:36;16.40;99.90
23267;DHT22;11802;53.160;8.214;2023-07-31T07:27:02;16.50;99.90
23267;DHT22;11802;53.160;8.214;2023-07-31T07:29:28;16.50;99.90
23267;DHT22;11802;53.160;8.214;2023-07-31T07:31:53;16.50;99.90
23267;DHT22;11802;53.160;8.214;2023-07-31T07:34:19;16.50;99.90
23267;DHT22;11802;53.160;8.214;2023-07-31T07:36:44;16.60;99.90
23267;DHT22;11802;53.160;8.214;2023-07-31T07:39:10;16.60;99.90
23267;DHT22;11802;53.160;8.214;2023-07-31T07:41:37;16.70;99.90
23267;DHT22;11802;53.160;8.214;2023-07-31T07:44:03;16.70;99.90
23267;DHT22;11802;53.160;8.214;2023-07-31T07:46:28;16.80;99.90
23267;DHT22;11802;53.160;8.214;2023-07-31T07:48:54;16.80;99.90
23267;DHT22;11802;53.160;8.214;2023-07-31T07:51:19;16.80;99.90
23267;DHT22;11802;53.160;8.214;2023-07-31T07:53:45;16.90;99.90
23267;DHT22;11802;53.160;8.214;2023-07-31T07:56:11;16.90;99.90
23267;DHT22;11802;53.160;8.214;2023-07-31T07:58:36;17.00;99.90
23267;DHT22;11802;53.160;8.214;2023-07-31T08:01:02;17.00;99.90
23267;DHT22;11802;53.160;8.214;2023-07-31T08:03:27;17.00;99.90
23267;DHT22;11802;53.160;8.214;2023-07-31T08:05:58;17.20;99.90
23267;DHT22;11802;53.160;8.214;2023-07-31T08:08:24;17.20;99.90
23267;DHT22;11802;53.160;8.214;2023-07-31T08:10:49;17.30;99.90
23267;DHT22;11802;53.160;8.214;2023-07-31T08:13:15;17.30;99.90
23267;DHT22;11802;53.160;8.214;2023-07-31T08:15:43;17.30;99.90
23267;DHT22;11802;53.160;8.214;2023-07-31T08:18:10;17.40;99.90
23267;DHT22;11802;53.160;8.214;2023-07-31T08:20:37;17.50;99.90
23267;DHT22;11802;53.160;8.214;2023-07-31T08:23:02;17.50;99.90
23267;DHT22;11802;53.160;8.214;2023-07-31T08:25:28;17.40;99.90
23267;DHT22;11802;53.160;8.214;2023-07-31T08:27:53;17.50;99.90
23267;DHT22;11802;53.160;8.214;2023-07-31T08:30:19;17.40;99.90
23267;DHT22;11802;53.160;8.214;2023-07-31T08:32:45;17.40;99.90
23267;DHT22;11802;53.160;8.214;2023-07-31T08:35:10;17.40;99.90
23267;DHT22;11802;53.160;8.214;2023-07-31T08:37:37;17.30;99.90
23267;DHT22;11802;53.160;8.214;2023-07-31T08:40:03;17.30;99.90
23267;DHT22;11802;53.160;8.214;2023-07-31T08:42:29;17.30;99.90
23267;DHT22;11802;53.160;8.214;2023-07-31T08:44:56;17.30;99.90
23267;DHT22;11802;53.160;8.214;2023-07-31T08:47:22;17.40;99.90
23267;DHT22;11802;53.160;8.214;2023-07-31T08:49:49;17.50;99.90
23267;DHT22;11802;53.160;8.214;2023-07-31T08:52:16;17.50;99.90
23267;DHT22;11802;53.160;8.214;2023-07-31T08:54:42;17.50;99.90
23267;DHT22;11802;53.160;8.214;2023-07-31T08:57:07;17.50;99.90
23267;DHT22;11802;53.160;8.214;2023-07-31T08:59:35;17.50;99.90
23267;DHT22;11802;53.160;8.214;2023-07-31T09:02:05;17.40;99.90
23267;DHT22;11802;53.160;8.214;2023-07-31T09:04:32;17.30;99.90
23267;DHT22;11802;53.160;8.214;2023-07-31T09:07:01;17.50;99.90
23267;DHT22;11802;53.160;8.214;2023-07-31T09:09:27;17.30;99.90
23267;DHT22;11802;53.160;8.214;2023-07-31T09:11:52;17.40;99.90
23267;DHT22;11802;53.160;8.214;2023-07-31T09:14:18;17.40;99.90
23267;DHT22;11802;53.160;8.214;2023-07-31T09:16:58;17.40;99.90
23267;DHT22;11802;53.160;8.214;2023-07-31T09:19:26;17.40;99.90
23267;DHT22;11802;53.160;8.214;2023-07-31T09:21:52;17.40;99.90
23267;DHT22;11802;53.160;8.214;2023-07-31T09:24:31;17.40;99.90
23267;DHT22;11802;53.160;8.214;2023-07-31T09:26:58;17.70;99.90
23267;DHT22;11802;53.160;8.214;2023-07-31T09:29:24;17.80;99.90
23267;DHT22;11802;53.160;8.214;2023-07-31T09:31:52;17.80;99.90
23267;DHT22;11802;53.160;8.214;2023-07-31T09:34:17;17.70;99.90
23267;DHT22;11802;53.160;8.214;2023-07-31T09:36:43;17.90;99.90
23267;DHT22;11802;53.160;8.214;2023-07-31T09:39:11;18.00;99.90
23267;DHT22;11802;53.160;8.214;2023-07-31T09:41:53;18.00;99.90
23267;DHT22;11802;53.160;8.214;2023-07-31T09:44:19;18.00;99.90
23267;DHT22;11802;53.160;8.214;2023-07-31T09:46:45;18.00;99.90
23267;DHT22;11802;53.160;8.214;2023-07-31T09:49:12;17.90;99.90
23267;DHT22;11802;53.160;8.214;2023-07-31T09:51:39;18.00;99.90
23267;DHT22;11802;53.160;8.214;2023-07-31T09:54:12;18.00;99.90
23267;DHT22;11802;53.160;8.214;2023-07-31T09:56:48;18.00;99.90
23267;DHT22;11802;53.160;8.214;2023-07-31T09:59:18;18.10;99.90
23267;DHT22;11802;53.160;8.214;2023-07-31T10:01:46;17.90;99.90
23267;DHT22;11802;53.160;8.214;2023-07-31T10:04:12;18.00;99.90
23267;DHT22;11802;53.160;8.214;2023-07-31T10:06:40;18.00;99.90
23267;DHT22;11802;53.160;8.214;2023-07-31T10:09:07;18.00;99.90
23267;DHT22;11802;53.160;8.214;2023-07-31T10:12:00;18.20;99.90
23267;DHT22;11802;53.160;8.214;2023-07-31T10:14:26;18.00;99.90
23267;DHT22;11802;53.160;8.214;2023-07-31T10:16:52;18.00;99.90
23267;DHT22;11802;53.160;8.214;2023-07-31T10:19:19;18.20;99.90
23267;DHT22;11802;53.160;8.214;2023-07-31T10:21:46;18.20;99.90
23267;DHT22;11802;53.160;8.214;2023-07-31T10:24:12;18.20;99.90
23267;DHT22;11802;53.160;8.214;2023-07-31T10:26:38;18.30;99.90
23267;DHT22;11802;53.160;8.214;2023-07-31T10:29:05;18.50;99.90
23267;DHT22;11802;53.160;8.214;2023-07-31T10:31:32;18.60;99.90
23267;DHT22;11802;53.160;8.214;2023-07-31T10:33:59;18.70;99.90
23267;DHT22;11802;53.160;8.214;2023-07-31T10:36:26;18.70;99.90
23267;DHT22;11802;53.160;8.214;2023-07-31T10:38:52;19.00;99.90
23267;DHT22;11802;53.160;8.214;2023-07-31T10:41:18;19.00;99.90
23267;DHT22;11802;53.160;8.214;2023-07-31T10:43:46;19.00;99.90
23267;DHT22;11802;53.160;8.214;2023-07-31T10:46:12;18.90;99.90
23267;DHT22;11802;53.160;8.214;2023-07-31T10:48:40;18.90;99.90
23267;DHT22;11802;53.160;8.214;2023-07-31T10:51:08;18.80;99.90
23267;DHT22;11802;53.160;8.214;2023-07-31T10:53:39;18.70;99.90
23267;DHT22;11802;53.160;8.214;2023-07-31T10:56:10;18.70;99.90
23267;DHT22;11802;53.160;8.214;2023-07-31T10:58:44;18.70;99.90
23267;DHT22;11802;53.160;8.214;2023-07-31T11:01:10;18.70;99.90
23267;DHT22;11802;53.160;8.214;2023-07-31T11:03:49;18.70;99.90
23267;DHT22;11802;53.160;8.214;2023-07-31T11:06:17;18.60;99.90
23267;DHT22;11802;53.160;8.214;2023-07-31T11:08:48;18.60;99.90
23267;DHT22;11802;53.160;8.214;2023-07-31T11:11:20;18.80;99.90
23267;DHT22;11802;53.160;8.214;2023-07-31T11:13:50;18.90;99.90
23267;DHT22;11802;53.160;8.214;2023-07-31T11:16:22;18.90;99.90
23267;DHT22;11802;53.160;8.214;2023-07-31T11:18:48;18.90;99.90
23267;DHT22;11802;53.160;8.214;2023-07-31T11:21:15;18.90;99.90
23267;DHT22;11802;53.160;8.214;2023-07-31T11:23:41;19.00;99.90
23267;DHT22;11802;53.160;8.214;2023-07-31T11:26:07;18.90;99.90
23267;DHT22;11802;53.160;8.214;2023-07-31T11:28:34;18.90;99.90
23267;DHT22;11802;53.160;8.214;2023-07-31T11:30:59;18.90;99.90
23267;DHT22;11802;53.160;8.214;2023-07-31T11:33:25;18.80;99.90
23267;DHT22;11802;53.160;8.214;2023-07-31T11:35:51;18.60;99.90
23267;DHT22;11802;53.160;8.214;2023-07-31T11:38:27;18.50;99.90
23267;DHT22;11802;53.160;8.214;2023-07-31T11:40:55;18.60;99.90
23267;DHT22;11802;53.160;8.214;2023-07-31T11:43:21;18.70;99.90
23267;DHT22;11802;53.160;8.214;2023-07-31T11:45:52;18.60;99.90
23267;DHT22;11802;53.160;8.214;2023-07-31T11:50:54;18.90;99.90
23267;DHT22;11802;53.160;8.214;2023-07-31T11:53:29;19.20;99.90
23267;DHT22;11802;53.160;8.214;2023-07-31T11:55:58;19.30;99.90
23267;DHT22;11802;53.160;8.214;2023-07-31T11:58:24;19.20;99.90
23267;DHT22;11802;53.160;8.214;2023-07-31T12:00:50;19.30;99.90
23267;DHT22;11802;53.160;8.214;2023-07-31T12:03:17;19.20;99.90
23267;DHT22;11802;53.160;8.214;2023-07-31T12:05:43;19.20;99.90
23267;DHT22;11802;53.160;8.214;2023-07-31T12:08:11;19.10;99.90
23267;DHT22;11802;53.160;8.214;2023-07-31T12:10:37;19.20;99.90
23267;DHT22;11802;53.160;8.214;2023-07-31T12:13:05;19.20;99.90
23267;DHT22;11802;53.160;8.214;2023-07-31T12:15:42;19.10;99.90
23267;DHT22;11802;53.160;8.214;2023-07-31T12:18:10;19.20;99.90
23267;DHT22;11802;53.160;8.214;2023-07-31T12:20:39;19.30;99.90
23267;DHT22;11802;53.160;8.214;2023-07-31T12:23:05;19.40;99.90
23267;DHT22;11802;53.160;8.214;2023-07-31T12:25:32;19.40;99.90
23267;DHT22;11802;53.160;8.214;2023-07-31T12:28:04;19.40;99.90
23267;DHT22;11802;53.160;8.214;2023-07-31T12:30:33;19.50;99.90
23267;DHT22;11802;53.160;8.214;2023-07-31T12:33:04;19.50;99.90
23267;DHT22;11802;53.160;8.214;2023-07-31T12:35:44;19.50;99.90
23267;DHT22;11802;53.160;8.214;2023-07-31T12:38:12;19.60;99.90
23267;DHT22;11802;53.160;8.214;2023-07-31T12:40:38;19.80;99.90
23267;DHT22;11802;53.160;8.214;2023-07-31T12:43:04;19.80;99.90
23267;DHT22;11802;53.160;8.214;2023-07-31T12:45:31;20.00;99.90
23267;DHT22;11802;53.160;8.214;2023-07-31T12:47:57;20.00;99.90
23267;DHT22;11802;53.160;8.214;2023-07-31T12:50:23;20.00;99.90
23267;DHT22;11802;53.160;8.214;2023-07-31T12:52:49;19.90;99.90
23267;DHT22;11802;53.160;8.214;2023-07-31T12:55:14;20.10;99.90
23267;DHT22;11802;53.160;8.214;2023-07-31T12:57:40;20.10;99.90
23267;DHT22;11802;53.160;8.214;2023-07-31T13:00:07;20.00;99.90
23267;DHT22;11802;53.160;8.214;2023-07-31T13:02:33;19.70;99.90
23267;DHT22;11802;53.160;8.214;2023-07-31T13:04:59;19.80;99.90
23267;DHT22;11802;53.160;8.214;2023-07-31T13:07:24;19.70;99.90
23267;DHT22;11802;53.160;8.214;2023-07-31T13:09:51;19.50;99.90
23267;DHT22;11802;53.160;8.214;2023-07-31T13:12:16;19.40;99.90
23267;DHT22;11802;53.160;8.214;2023-07-31T13:14:42;19.20;99.90
23267;DHT22;11802;53.160;8.214;2023-07-31T13:17:07;19.10;99.90
23267;DHT22;11802;53.160;8.214;2023-07-31T13:19:33;19.10;99.90
23267;DHT22;11802;53.160;8.214;2023-07-31T13:21:58;19.10;99.90
23267;DHT22;11802;53.160;8.214;2023-07-31T13:24:24;19.00;99.90
23267;DHT22;11802;53.160;8.214;2023-07-31T13:26:49;19.00;99.90
23267;DHT22;11802;53.160;8.214;2023-07-31T13:29:15;19.00;99.90
23267;DHT22;11802;53.160;8.214;2023-07-31T13:31:40;19.10;99.90
23267;DHT22;11802;53.160;8.214;2023-07-31T13:34:06;19.10;99.90
23267;DHT22;11802;53.160;8.214;2023-07-31T13:36:32;19.00;99.90
23267;DHT22;11802;53.160;8.214;2023-07-31T13:38:59;19.00;99.90
23267;DHT22;11802;53.160;8.214;2023-07-31T13:41:25;19.00;99.90
23267;DHT22;11802;53.160;8.214;2023-07-31T13:43:50;19.00;99.90
23267;DHT22;11802;53.160;8.214;2023-07-31T13:46:16;18.90;99.90
23267;DHT22;11802;53.160;8.214;2023-07-31T13:48:41;18.90;99.90
23267;DHT22;11802;53.160;8.214;2023-07-31T13:51:07;18.80;99.90
23267;DHT22;11802;53.160;8.214;2023-07-31T13:53:32;18.80;99.90
23267;DHT22;11802;53.160;8.214;2023-07-31T13:55:58;18.80;99.90
23267;DHT22;11802;53.160;8.214;2023-07-31T13:58:23;18.90;99.90
23267;DHT22;11802;53.160;8.214;2023-07-31T14:00:49;18.80;99.90
23267;DHT22;11802;53.160;8.214;2023-07-31T14:03:14;18.70;99.90
23267;DHT22;11802;53.160;8.214;2023-07-31T14:05:40;18.60;99.90
23267;DHT22;11802;53.160;8.214;2023-07-31T14:08:05;18.50;99.90
23267;DHT22;11802;53.160;8.214;2023-07-31T14:10:31;18.50;99.90
23267;DHT22;11802;53.160;8.214;2023-07-31T14:12:56;18.60;99.90
23267;DHT22;11802;53.160;8.214;2023-07-31T14:15:22;18.50;99.90
23267;DHT22;11802;53.160;8.214;2023-07-31T14:17:47;18.50;99.90
23267;DHT22;11802;53.160;8.214;2023-07-31T14:20:13;18.60;99.90
23267;DHT22;11802;53.160;8.214;2023-07-31T14:22:38;18.70;99.90
23267;DHT22;11802;53.160;8.214;2023-07-31T14:25:04;18.80;99.90
23267;DHT22;11802;53.160;8.214;2023-07-31T14:27:30;18.90;99.90
23267;DHT22;11802;53.160;8.214;2023-07-31T14:29:55;19.00;99.90
23267;DHT22;11802;53.160;8.214;2023-07-31T14:32:22;19.10;99.90
23267;DHT22;11802;53.160;8.214;2023-07-31T14:34:50;19.20;99.90
23267;DHT22;11802;53.160;8.214;2023-07-31T14:37:16;19.20;99.90
23267;DHT22;11802;53.160;8.214;2023-07-31T14:39:41;19.20;99.90
23267;DHT22;11802;53.160;8.214;2023-07-31T14:42:07;19.40;99.90
23267;DHT22;11802;53.160;8.214;2023-07-31T14:44:32;19.50;99.90
23267;DHT22;11802;53.160;8.214;2023-07-31T14:46:58;19.60;99.90
23267;DHT22;11802;53.160;8.214;2023-07-31T14:49:23;19.70;99.90
23267;DHT22;11802;53.160;8.214;2023-07-31T14:51:49;19.70;99.90
23267;DHT22;11802;53.160;8.214;2023-07-31T14:54:14;20.00;99.90
23267;DHT22;11802;53.160;8.214;2023-07-31T14:56:40;20.30;99.90
23267;DHT22;11802;53.160;8.214;2023-07-31T14:59:05;20.40;99.90
23267;DHT22;11802;53.160;8.214;2023-07-31T15:01:33;20.30;99.90
23267;DHT22;11802;53.160;8.214;2023-07-31T15:03:58;20.40;99.90
23267;DHT22;11802;53.160;8.214;2023-07-31T15:06:24;20.50;99.90
23267;DHT22;11802;53.160;8.214;2023-07-31T15:08:49;20.30;99.90
23267;DHT22;11802;53.160;8.214;2023-07-31T15:11:15;20.20;99.90
23267;DHT22;11802;53.160;8.214;2023-07-31T15:13:41;20.30;99.90
23267;DHT22;11802;53.160;8.214;2023-07-31T15:16:06;20.30;99.90
23267;DHT22;11802;53.160;8.214;2023-07-31T15:18:32;20.40;99.90
23267;DHT22;11802;53.160;8.214;2023-07-31T15:20:58;20.40;99.90
23267;DHT22;11802;53.160;8.214;2023-07-31T15:23:23;20.20;99.90
23267;DHT22;11802;53.160;8.214;2023-07-31T15:25:49;20.20;99.90
23267;DHT22;11802;53.160;8.214;2023-07-31T15:28:14;20.10;99.90
23267;DHT22;11802;53.160;8.214;2023-07-31T15:30:40;20.10;99.90
23267;DHT22;11802;53.160;8.214;2023-07-31T15:33:06;20.10;99.90